Ana Sayfa
METAR-TAF:

METAR-TAF

Havaalanları :

Franklin County, Vermont, Amerika Birleşik Devletleri

Enlem: 44-56-25N, Boylam: 073-05-51W, yükseklik: 69 m

Güncel hava durumu gözlemi

Rapor saat 17:55 UTC de 16 dakika önce yapıldı.
Rüzgar batıdan 9 kt ve 19 kt'a kadar ani rüzgarlar, güneybatı ve batı arasında değişken
Sıcaklık 11°C
Nem 58%
Basınç 1004 hPa
Görüş mesafesi: 16.1 km
4200 ft yükseklikte parçalı çok bulutlu
5000 ft yükseklikte çok bulutlu

METAR: KFSO 101755Z AUTO 26009G19KT 220V280 10SM BKN042 OVC050 11/03 A2964 RMK AO2 T01070025 10115 20105

Saat: 13:11 (18:11 UTC)


TAF: eksik

4.000'den fazla havaalanı için hava durumu gözlemleri ve tahminleri (METAR ve TAF raporları).

Kullanılabilir istasyonlar harita üzerinde sarı ve kırmızı noktalarla gösterilir.

İstasyonun adını görmek için fareyi noktanın üzerinde gezdirin.

Sonrasında hava gözlem ve tahminlerini görmek için tıklayın.

Haritayı değiştirmek için: yaklaştırmak için siyah artı işaretli yeşil düğmeye ve uzaklaştırmak için de eksi işaretli düğmeye hızla tıklayın; bitişik haritalar için yeşil okları kullanın.


METAR-TAF: